createdAt,value
2022-08-17T00:01:27.181Z,36.56
2022-08-17T00:03:54.931Z,36.59
2022-08-17T00:06:24.540Z,36.54
2022-08-17T00:08:54.997Z,36.41
2022-08-17T00:11:25.341Z,36.56
2022-08-17T00:13:56.228Z,36.32
2022-08-17T00:16:56.618Z,36.59
2022-08-17T00:19:15.851Z,36.77
2022-08-17T00:22:32.590Z,36.39
2022-08-17T00:24:34.278Z,36.56
2022-08-17T00:27:01.470Z,36.93
2022-08-17T00:29:28.639Z,36.87
2022-08-17T00:31:55.816Z,36.85
2022-08-17T00:34:22.995Z,36.56
2022-08-17T00:36:50.209Z,36.41
2022-08-17T00:39:17.363Z,36.91
2022-08-17T00:41:45.956Z,36.53
2022-08-17T00:44:13.177Z,36.64
2022-08-17T00:46:42.702Z,36.38
2022-08-17T00:49:12.777Z,36.27
2022-08-17T00:51:44.270Z,36.50
2022-08-17T00:54:14.647Z,36.67
2022-08-17T00:56:46.265Z,36.72
2022-08-17T00:59:20.963Z,36.73
2022-08-17T01:01:50.083Z,36.35
2022-08-17T01:04:19.665Z,36.40
2022-08-17T01:06:48.429Z,36.44
2022-08-17T01:09:17.060Z,36.86
2022-08-17T01:11:45.392Z,36.85
2022-08-17T01:14:12.811Z,36.69
2022-08-17T01:16:41.456Z,36.49
2022-08-17T01:19:16.315Z,36.46
2022-08-17T01:21:50.234Z,36.85
2022-08-17T01:24:19.063Z,36.56
2022-08-17T01:26:47.135Z,36.69
2022-08-17T01:29:16.617Z,36.80
2022-08-17T01:31:47.610Z,36.79
2022-08-17T01:34:16.230Z,36.67
2022-08-17T01:36:45.787Z,36.41
2022-08-17T01:39:22.449Z,36.53
2022-08-17T01:41:52.733Z,36.39
2022-08-17T01:44:21.834Z,36.62
2022-08-17T01:46:49.236Z,36.86
2022-08-17T01:49:16.458Z,36.81
2022-08-17T01:51:43.818Z,36.56
2022-08-17T01:54:14.879Z,36.48
2022-08-17T01:56:47.713Z,36.46
2022-08-17T01:59:15.537Z,36.34
2022-08-17T02:01:44.312Z,36.62
2022-08-17T02:04:12.768Z,36.68
2022-08-17T02:06:52.618Z,36.97
2022-08-17T02:09:25.123Z,37.01
2022-08-17T02:11:56.359Z,36.73
2022-08-17T02:14:24.514Z,37.07
2022-08-17T02:16:52.583Z,36.98
2022-08-17T02:19:20.434Z,36.79
2022-08-17T02:21:49.792Z,36.89
2022-08-17T02:24:58.390Z,36.50
2022-08-17T02:27:09.159Z,36.38
2022-08-17T02:29:36.358Z,36.44
2022-08-17T02:32:04.270Z,36.28
2022-08-17T02:34:31.446Z,36.39
2022-08-17T02:36:58.656Z,36.48
2022-08-17T02:39:25.923Z,36.46
2022-08-17T02:42:00.913Z,36.72
2022-08-17T02:44:39.481Z,36.47
2022-08-17T02:47:09.132Z,36.71
2022-08-17T02:49:37.259Z,36.56
2022-08-17T02:52:05.870Z,36.43
2022-08-17T02:54:40.129Z,36.90
2022-08-17T02:57:09.727Z,36.85
2022-08-17T02:59:38.608Z,36.91
2022-08-17T03:02:07.282Z,36.93
2022-08-17T03:04:35.132Z,36.73
2022-08-17T03:07:03.336Z,37.04
2022-08-17T03:09:30.995Z,36.92
2022-08-17T03:12:04.612Z,36.81
2022-08-17T03:14:31.876Z,36.89
2022-08-17T03:17:00.398Z,36.58
2022-08-17T03:19:27.563Z,37.07
2022-08-17T03:21:55.049Z,36.63
2022-08-17T03:24:28.595Z,36.45
2022-08-17T03:26:56.246Z,36.35
2022-08-17T03:29:23.438Z,36.74
2022-08-17T03:31:50.667Z,36.52
2022-08-17T03:34:19.329Z,36.69
2022-08-17T03:36:46.479Z,36.52
2022-08-17T03:39:13.733Z,36.89
2022-08-17T03:41:40.887Z,36.59
2022-08-17T03:44:08.059Z,36.93
2022-08-17T03:46:35.684Z,36.93
2022-08-17T03:49:05.576Z,36.76
2022-08-17T03:51:34.167Z,36.99
2022-08-17T03:54:01.676Z,36.94
2022-08-17T03:56:29.001Z,37.22
2022-08-17T03:58:56.181Z,36.90
2022-08-17T04:01:23.532Z,36.60
2022-08-17T04:03:50.790Z,37.04
2022-08-17T04:06:20.985Z,35.82
2022-08-17T04:08:49.508Z,36.10
2022-08-17T04:11:16.691Z,35.42
2022-08-17T04:13:43.874Z,35.21
2022-08-17T04:16:11.059Z,34.84
2022-08-17T04:18:39.456Z,34.76
2022-08-17T04:21:09.389Z,34.04
2022-08-17T04:23:36.547Z,34.19
2022-08-17T04:26:05.445Z,34.35
2022-08-17T04:28:32.609Z,34.53
2022-08-17T04:30:59.808Z,34.54
2022-08-17T04:33:29.494Z,34.73
2022-08-17T04:35:58.639Z,34.26
2022-08-17T04:38:28.121Z,34.35
2022-08-17T04:40:56.183Z,35.35
2022-08-17T04:43:27.150Z,36.31
2022-08-17T04:45:57.125Z,36.42
2022-08-17T04:48:34.764Z,35.30
2022-08-17T04:51:06.484Z,35.26
2022-08-17T04:53:33.659Z,35.20
2022-08-17T04:56:00.853Z,35.00
2022-08-17T04:58:29.522Z,36.02
2022-08-17T05:00:56.808Z,34.94
2022-08-17T05:03:24.115Z,35.59
2022-08-17T05:05:51.490Z,36.26
2022-08-17T05:08:20.371Z,35.65
2022-08-17T05:10:48.488Z,35.78
2022-08-17T05:13:20.208Z,35.30
2022-08-17T05:15:52.740Z,35.47
2022-08-17T05:18:19.972Z,35.52
2022-08-17T05:20:47.134Z,35.72
2022-08-17T05:23:18.446Z,35.60
2022-08-17T05:25:48.229Z,36.01
2022-08-17T05:28:18.002Z,36.21
2022-08-17T05:30:48.630Z,35.69
2022-08-17T05:33:20.103Z,35.63
2022-08-17T05:35:49.498Z,36.03
2022-08-17T05:38:18.700Z,36.25
2022-08-17T05:40:46.298Z,36.27
2022-08-17T05:43:16.189Z,36.93
2022-08-17T05:45:55.755Z,36.86
2022-08-17T05:48:39.571Z,36.69
2022-08-17T05:51:29.499Z,36.48
2022-08-17T05:54:07.213Z,36.75
2022-08-17T05:56:56.301Z,36.68
2022-08-17T05:59:29.911Z,37.05
2022-08-17T06:02:05.441Z,37.07
2022-08-17T06:04:46.858Z,37.33
2022-08-17T06:07:20.802Z,37.26
2022-08-17T06:09:56.957Z,37.63
2022-08-17T06:12:36.784Z,37.59
2022-08-17T06:15:18.089Z,37.72
2022-08-17T06:17:45.549Z,37.75
2022-08-17T06:20:15.854Z,37.82
2022-08-17T06:22:47.808Z,38.85
2022-08-17T06:25:18.530Z,37.54
2022-08-17T06:28:04.497Z,37.79
2022-08-17T06:30:58.563Z,37.51
2022-08-17T06:33:32.650Z,37.33
2022-08-17T06:36:16.326Z,43.07
2022-08-17T06:38:52.708Z,40.79
2022-08-17T06:41:26.301Z,40.73
2022-08-17T06:44:05.661Z,40.43
2022-08-17T06:46:37.289Z,40.29
2022-08-17T06:49:14.180Z,40.14
2022-08-17T06:51:48.587Z,39.29
2022-08-17T06:54:23.981Z,39.80
2022-08-17T06:56:57.144Z,39.87
2022-08-17T06:59:47.173Z,39.42
2022-08-17T07:02:29.166Z,39.94
2022-08-17T07:05:09.974Z,39.30
2022-08-17T07:07:40.148Z,39.04
2022-08-17T07:10:09.779Z,38.45
2022-08-17T07:12:40.791Z,38.39
2022-08-17T07:15:12.725Z,38.20
2022-08-17T07:17:47.294Z,38.29
2022-08-17T07:20:18.457Z,38.43
2022-08-17T07:23:00.141Z,39.38
2022-08-17T07:25:29.887Z,38.89
2022-08-17T07:27:59.289Z,39.13
2022-08-17T07:30:29.708Z,39.17
2022-08-17T07:33:01.495Z,39.11
2022-08-17T07:35:40.656Z,38.88
2022-08-17T07:38:24.156Z,39.03
2022-08-17T07:41:01.604Z,38.75
2022-08-17T07:43:31.234Z,38.92
2022-08-17T07:46:05.254Z,38.79
2022-08-17T07:48:36.078Z,38.83
2022-08-17T07:51:16.543Z,38.47
2022-08-17T07:53:45.088Z,37.94
2022-08-17T07:56:34.932Z,38.67
2022-08-17T07:59:08.662Z,38.88
2022-08-17T08:01:39.423Z,38.23
2022-08-17T08:04:43.172Z,38.10
2022-08-17T08:07:24.661Z,38.70
2022-08-17T08:10:06.010Z,38.69
2022-08-17T08:12:36.563Z,38.75
2022-08-17T08:15:12.706Z,40.07
2022-08-17T08:17:50.091Z,47.90
2022-08-17T08:20:52.763Z,45.37
2022-08-17T08:23:15.493Z,41.59
2022-08-17T08:26:03.101Z,40.46
2022-08-17T08:28:38.440Z,40.39
2022-08-17T08:31:16.352Z,39.87
2022-08-17T08:33:49.371Z,39.41
2022-08-17T08:37:02.041Z,39.22
2022-08-17T08:39:24.220Z,39.37
2022-08-17T08:41:58.623Z,39.34
2022-08-17T08:45:01.096Z,39.10
2022-08-17T08:47:36.432Z,39.31
2022-08-17T08:50:30.178Z,39.09
2022-08-17T08:53:27.368Z,38.96
2022-08-17T08:55:59.274Z,39.01
2022-08-17T08:58:41.297Z,38.58
2022-08-17T09:01:20.783Z,38.77
2022-08-17T09:04:21.355Z,38.66
2022-08-17T09:07:01.877Z,38.50
2022-08-17T09:09:42.496Z,38.51
2022-08-17T09:12:17.420Z,38.13
2022-08-17T09:14:55.490Z,38.57
2022-08-17T09:17:32.477Z,38.62
2022-08-17T09:20:04.532Z,38.54
2022-08-17T09:22:36.166Z,38.35
2022-08-17T09:25:08.939Z,38.17
2022-08-17T09:27:48.391Z,38.44
2022-08-17T09:30:17.227Z,39.49
2022-08-17T09:32:46.450Z,39.71
2022-08-17T09:35:17.635Z,39.15
2022-08-17T09:37:55.825Z,39.67
2022-08-17T09:40:27.068Z,38.45
2022-08-17T09:42:59.450Z,38.46
2022-08-17T09:45:38.811Z,37.92
2022-08-17T09:48:11.937Z,38.68
2022-08-17T09:50:55.500Z,38.85
2022-08-17T09:53:32.001Z,37.90
2022-08-17T09:56:16.080Z,37.11
2022-08-17T09:59:02.959Z,37.66
2022-08-17T10:01:37.381Z,38.07
2022-08-17T10:04:20.563Z,38.30
2022-08-17T10:06:56.419Z,37.45
2022-08-17T10:09:39.513Z,36.72
2022-08-17T10:12:22.172Z,37.13
2022-08-17T10:15:10.848Z,37.28
2022-08-17T10:17:49.013Z,37.24
2022-08-17T10:20:22.927Z,36.83
2022-08-17T10:22:55.039Z,36.61
2022-08-17T10:25:27.907Z,37.46
2022-08-17T10:28:11.738Z,36.08
2022-08-17T10:30:55.436Z,36.35
2022-08-17T10:33:47.724Z,36.90
2022-08-17T10:36:20.673Z,35.38
2022-08-17T10:38:57.680Z,36.38
2022-08-17T10:41:29.117Z,35.39
2022-08-17T10:44:37.923Z,35.56
2022-08-17T10:47:03.262Z,36.66
2022-08-17T10:49:36.067Z,36.62
2022-08-17T10:52:22.057Z,36.03
2022-08-17T10:55:13.217Z,36.45
2022-08-17T10:57:43.270Z,36.16
2022-08-17T11:00:30.308Z,36.39
2022-08-17T11:02:58.419Z,36.30
2022-08-17T11:05:43.534Z,35.68
2022-08-17T11:08:47.046Z,36.28
2022-08-17T11:11:44.017Z,35.90
2022-08-17T11:14:23.395Z,35.53
2022-08-17T11:17:06.527Z,35.62
2022-08-17T11:19:51.287Z,36.07
2022-08-17T11:23:00.694Z,35.61
2022-08-17T11:25:39.300Z,35.20
2022-08-17T11:28:13.034Z,35.04
2022-08-17T11:30:43.509Z,35.19
2022-08-17T11:33:53.111Z,35.13
2022-08-17T11:36:41.845Z,34.67
2022-08-17T11:39:28.640Z,35.03
2022-08-17T11:42:04.533Z,34.72
2022-08-17T11:44:45.401Z,34.78
2022-08-17T11:47:20.028Z,34.57
2022-08-17T11:50:02.595Z,34.66
2022-08-17T11:52:38.926Z,34.66
2022-08-17T11:55:34.111Z,34.19
2022-08-17T11:58:01.380Z,34.61
2022-08-17T12:00:52.187Z,34.45
2022-08-17T12:03:41.389Z,33.74
2022-08-17T12:06:18.128Z,32.79
2022-08-17T12:08:52.087Z,33.22
2022-08-17T12:11:55.159Z,33.33
2022-08-17T12:14:29.380Z,33.23
2022-08-17T12:17:09.303Z,33.48
2022-08-17T12:19:38.016Z,33.74
2022-08-17T12:22:12.931Z,32.74
2022-08-17T12:24:50.299Z,33.28
2022-08-17T12:28:04.121Z,33.37
2022-08-17T12:30:14.556Z,32.91
2022-08-17T12:32:42.202Z,32.39
2022-08-17T12:35:20.806Z,33.39
2022-08-17T12:37:49.697Z,33.43
2022-08-17T12:40:20.564Z,33.18
2022-08-17T12:42:55.689Z,32.55
2022-08-17T12:45:27.650Z,33.44
2022-08-17T12:48:02.505Z,33.02
2022-08-17T12:50:30.334Z,33.08
2022-08-17T12:53:01.984Z,32.76
2022-08-17T12:55:35.287Z,32.85
2022-08-17T12:58:02.831Z,32.91
2022-08-17T13:00:33.999Z,32.37
2022-08-17T13:03:04.357Z,32.62
2022-08-17T13:05:33.915Z,32.84
2022-08-17T13:08:02.386Z,32.28
2022-08-17T13:10:33.270Z,31.94
2022-08-17T13:13:01.839Z,32.16
2022-08-17T13:15:34.922Z,31.46
2022-08-17T13:18:09.011Z,32.34
2022-08-17T13:20:37.142Z,32.48
2022-08-17T13:23:11.870Z,32.15
2022-08-17T13:25:39.538Z,32.41
2022-08-17T13:28:16.926Z,32.41
2022-08-17T13:30:45.476Z,31.71
2022-08-17T13:33:26.067Z,31.56
2022-08-17T13:36:10.659Z,31.84
2022-08-17T13:38:47.206Z,32.11
2022-08-17T13:41:29.904Z,31.36
2022-08-17T13:43:57.120Z,31.05
2022-08-17T13:46:29.861Z,30.99
2022-08-17T13:49:00.112Z,31.21
2022-08-17T13:51:31.239Z,31.47
2022-08-17T13:54:05.413Z,31.35
2022-08-17T13:56:57.607Z,31.31
2022-08-17T13:59:53.146Z,31.16
2022-08-17T14:02:28.335Z,30.71
2022-08-17T14:04:57.108Z,31.48
2022-08-17T14:07:31.096Z,31.09
2022-08-17T14:10:01.008Z,31.11
2022-08-17T14:12:32.025Z,31.30
2022-08-17T14:14:59.243Z,31.00
2022-08-17T14:17:28.654Z,30.37
2022-08-17T14:19:55.982Z,30.55
2022-08-17T14:22:26.953Z,31.54
2022-08-17T14:24:54.179Z,30.60
2022-08-17T14:27:21.374Z,31.21
2022-08-17T14:29:48.891Z,31.37
2022-08-17T14:32:20.422Z,31.18
2022-08-17T14:34:49.192Z,31.39
2022-08-17T14:37:16.745Z,30.65
2022-08-17T14:39:44.329Z,31.11
2022-08-17T14:42:12.113Z,30.86
2022-08-17T14:44:39.811Z,30.41
2022-08-17T14:47:07.750Z,30.92
2022-08-17T14:49:34.933Z,30.89
2022-08-17T14:52:04.057Z,30.94
2022-08-17T14:54:34.332Z,30.89
2022-08-17T14:57:23.404Z,31.34
2022-08-17T14:59:54.499Z,31.57
2022-08-17T15:02:30.028Z,31.39
2022-08-17T15:05:01.974Z,31.49
2022-08-17T15:07:31.534Z,31.27
2022-08-17T15:10:00.410Z,31.21
2022-08-17T15:12:32.854Z,31.02
2022-08-17T15:15:00.870Z,31.38
2022-08-17T15:17:44.191Z,30.83
2022-08-17T15:20:16.271Z,31.26
2022-08-17T15:22:46.445Z,31.47
2022-08-17T15:25:13.989Z,31.50
2022-08-17T15:27:41.959Z,31.30
2022-08-17T15:30:10.582Z,30.79
2022-08-17T15:32:40.008Z,30.91
2022-08-17T15:35:09.615Z,30.94
2022-08-17T15:37:38.890Z,30.86
2022-08-17T15:40:09.870Z,30.72
2022-08-17T15:42:37.957Z,30.79
2022-08-17T15:45:08.056Z,30.53
2022-08-17T15:47:35.503Z,31.11
2022-08-17T15:50:02.810Z,31.07
2022-08-17T15:52:29.986Z,31.09
2022-08-17T15:54:59.465Z,31.22
2022-08-17T15:57:28.141Z,31.66
2022-08-17T15:59:59.077Z,31.29
2022-08-17T16:03:45.086Z,30.93
2022-08-17T16:05:20.563Z,31.43
2022-08-17T16:07:47.867Z,30.91
2022-08-17T16:10:19.035Z,31.54
2022-08-17T16:12:49.881Z,31.57
2022-08-17T16:15:17.853Z,31.12
2022-08-17T16:17:45.316Z,31.26
2022-08-17T16:20:20.170Z,31.30
2022-08-17T16:22:50.322Z,31.43
2022-08-17T16:25:21.713Z,31.54
2022-08-17T16:27:51.261Z,31.52
2022-08-17T16:30:20.357Z,31.18
2022-08-17T16:32:49.130Z,30.97
2022-08-17T16:35:16.685Z,31.20
2022-08-17T16:37:45.428Z,31.61
2022-08-17T16:40:14.636Z,31.99
2022-08-17T16:42:42.731Z,31.77
2022-08-17T16:45:15.716Z,31.85
2022-08-17T16:47:43.627Z,32.07
2022-08-17T16:50:12.510Z,31.93
2022-08-17T16:52:40.881Z,32.20
2022-08-17T16:55:10.267Z,32.33
2022-08-17T16:57:47.550Z,32.05
2022-08-17T17:00:19.539Z,32.44
2022-08-17T17:02:48.671Z,32.16
2022-08-17T17:05:32.272Z,32.16
2022-08-17T17:08:03.683Z,31.82
2022-08-17T17:10:39.082Z,31.87
2022-08-17T17:13:12.904Z,31.73
2022-08-17T17:15:53.904Z,32.22
2022-08-17T17:18:26.670Z,32.20
2022-08-17T17:20:56.325Z,31.98
2022-08-17T17:23:39.061Z,32.64
2022-08-17T17:26:16.362Z,32.18
2022-08-17T17:29:00.945Z,31.86
2022-08-17T17:31:38.120Z,32.20
2022-08-17T17:34:10.255Z,32.13
2022-08-17T17:36:41.562Z,32.10
2022-08-17T17:39:13.158Z,32.05
2022-08-17T17:41:46.463Z,32.02
2022-08-17T17:44:19.732Z,33.34
2022-08-17T17:46:53.010Z,33.47
2022-08-17T17:49:20.551Z,33.38
2022-08-17T17:52:11.046Z,33.62
2022-08-17T17:54:52.826Z,33.67
2022-08-17T17:57:29.532Z,33.65
2022-08-17T18:00:02.505Z,33.72
2022-08-17T18:02:42.283Z,33.26
2022-08-17T18:05:18.137Z,33.77
2022-08-17T18:07:51.675Z,33.79
2022-08-17T18:10:30.126Z,33.80
2022-08-17T18:13:07.418Z,33.65
2022-08-17T18:15:40.470Z,33.56
2022-08-17T18:18:27.318Z,33.96
2022-08-17T18:21:00.943Z,33.80
2022-08-17T18:23:28.740Z,33.83
2022-08-17T18:25:57.168Z,33.80
2022-08-17T18:28:28.022Z,34.28
2022-08-17T18:31:11.946Z,34.17
2022-08-17T18:33:41.874Z,34.17
2022-08-17T18:36:09.566Z,34.53
2022-08-17T18:38:39.227Z,34.21
2022-08-17T18:41:19.568Z,34.28
2022-08-17T18:44:01.520Z,34.37
2022-08-17T18:46:32.231Z,34.35
2022-08-17T18:49:03.121Z,34.35
2022-08-17T18:51:41.957Z,34.60
2022-08-17T18:54:19.571Z,34.35
2022-08-17T18:56:53.183Z,34.61
2022-08-17T18:59:29.034Z,34.59
2022-08-17T19:02:27.344Z,34.69
2022-08-17T19:05:09.227Z,34.44
2022-08-17T19:07:39.667Z,34.70
2022-08-17T19:10:19.832Z,34.73
2022-08-17T19:12:51.734Z,34.69
2022-08-17T19:15:26.703Z,34.79
2022-08-17T19:17:57.850Z,34.60
2022-08-17T19:20:30.898Z,34.88
2022-08-17T19:23:10.067Z,34.90
2022-08-17T19:25:42.713Z,34.62
2022-08-17T19:28:22.467Z,34.45
2022-08-17T19:30:54.911Z,34.89
2022-08-17T19:33:22.371Z,34.87
2022-08-17T19:36:00.322Z,34.67
2022-08-17T19:38:40.339Z,34.63
2022-08-17T19:41:16.260Z,34.55
2022-08-17T19:44:17.178Z,34.69
2022-08-17T19:46:58.375Z,34.59
2022-08-17T19:49:41.384Z,34.80
2022-08-17T19:52:32.979Z,34.57
2022-08-17T19:55:05.724Z,34.34
2022-08-17T19:57:43.687Z,34.41
2022-08-17T20:00:15.752Z,34.59
2022-08-17T20:02:50.048Z,34.58
2022-08-17T20:05:21.398Z,34.37
2022-08-17T20:07:55.353Z,34.62
2022-08-17T20:10:40.113Z,35.05
2022-08-17T20:13:12.212Z,34.67
2022-08-17T20:15:41.826Z,34.94
2022-08-17T20:18:18.163Z,34.85
2022-08-17T20:20:56.726Z,35.21
2022-08-17T20:23:35.330Z,35.13
2022-08-17T20:26:10.500Z,34.95
2022-08-17T20:28:38.269Z,34.96
2022-08-17T20:31:40.810Z,35.00
2022-08-17T20:34:30.971Z,35.06
2022-08-17T20:37:08.786Z,34.99
2022-08-17T20:39:41.912Z,35.05
2022-08-17T20:42:27.927Z,35.14
2022-08-17T20:44:57.623Z,35.08
2022-08-17T20:47:28.865Z,35.24
2022-08-17T20:50:00.874Z,35.32
2022-08-17T20:52:52.561Z,35.46
2022-08-17T20:55:53.397Z,35.34
2022-08-17T20:58:43.221Z,35.48
2022-08-17T21:01:12.515Z,35.31
2022-08-17T21:03:52.077Z,35.32
2022-08-17T21:06:22.726Z,35.35
2022-08-17T21:08:54.003Z,35.61
2022-08-17T21:11:59.952Z,35.36
2022-08-17T21:14:41.002Z,35.45
2022-08-17T21:17:32.617Z,35.71
2022-08-17T21:20:11.796Z,35.77
2022-08-17T21:22:57.210Z,35.43
2022-08-17T21:26:02.464Z,35.38
2022-08-17T21:29:00.529Z,35.78
2022-08-17T21:31:34.398Z,35.60
2022-08-17T21:34:25.428Z,35.53
2022-08-17T21:36:52.770Z,35.33
2022-08-17T21:39:24.000Z,35.34
2022-08-17T21:41:58.249Z,35.43
2022-08-17T21:44:32.421Z,35.18
2022-08-17T21:47:11.874Z,35.28
2022-08-17T21:49:38.967Z,35.38
2022-08-17T21:52:07.577Z,35.46
2022-08-17T21:54:39.322Z,35.66
2022-08-17T21:57:14.719Z,35.82
2022-08-17T21:59:44.130Z,35.51
2022-08-17T22:02:19.469Z,35.79
2022-08-17T22:04:57.138Z,35.63
2022-08-17T22:07:35.904Z,35.75
2022-08-17T22:10:06.562Z,35.47
2022-08-17T22:12:33.728Z,35.78
2022-08-17T22:15:05.156Z,35.71
2022-08-17T22:17:34.119Z,35.71
2022-08-17T22:20:05.680Z,35.55
2022-08-17T22:22:36.825Z,35.51
2022-08-17T22:25:06.684Z,35.82
2022-08-17T22:27:50.270Z,35.58
2022-08-17T22:30:29.705Z,35.53
2022-08-17T22:32:57.785Z,35.50
2022-08-17T22:35:34.648Z,35.35
2022-08-17T22:38:29.282Z,35.65
2022-08-17T22:41:15.722Z,35.27
2022-08-17T22:43:44.754Z,35.43
2022-08-17T22:46:14.208Z,35.34
2022-08-17T22:48:47.543Z,35.59
2022-08-17T22:51:20.435Z,35.72
2022-08-17T22:53:50.644Z,35.66
2022-08-17T22:56:24.657Z,35.86
2022-08-17T22:58:58.712Z,36.04
2022-08-17T23:01:30.775Z,35.68
2022-08-17T23:04:00.637Z,35.80
2022-08-17T23:06:28.991Z,36.04
2022-08-17T23:08:56.207Z,35.68
2022-08-17T23:11:23.760Z,35.96
2022-08-17T23:14:11.898Z,35.96
2022-08-17T23:16:41.613Z,35.83
2022-08-17T23:19:09.414Z,35.82
2022-08-17T23:21:37.369Z,35.81
2022-08-17T23:24:06.233Z,36.02
2022-08-17T23:26:35.794Z,35.94
2022-08-17T23:29:03.005Z,35.82
2022-08-17T23:31:30.636Z,35.98
2022-08-17T23:33:59.247Z,35.76
2022-08-17T23:36:26.768Z,35.87
2022-08-17T23:38:54.267Z,35.94
2022-08-17T23:41:22.671Z,35.65
2022-08-17T23:43:52.653Z,36.14
2022-08-17T23:46:19.864Z,35.76
2022-08-17T23:48:47.048Z,35.80
2022-08-17T23:51:18.786Z,36.24
2022-08-17T23:53:48.710Z,36.25
2022-08-17T23:56:16.327Z,36.10
2022-08-17T23:58:44.064Z,36.10
